Brownfield, ME

9:07 PM EDT on April 26, 2015 (GMT -0400)
Eastern Slopes Regional | | Change Station
CLOSE
Current Station
Airport
Location: Fryeburg,
Elevation: 453 ft
Nearby Weather Stations

Elev 453 ft 43.99 °N, 70.95 °W | Updated 13 minutes ago

Mostly Cloudy
Mostly Cloudy
45 °F
Feels Like 43 °F
N
5
Wind Variable Wind from NNW

Today
High -- | Low -- °F
--% Chance of Precip.
Yesterday
High -- | Low -- °F
Precip. -- in
5:43 AM 7:40 PM
First Quarter, 60% visible
Pressure 29.64 in
Visibility 10.0 miles
Clouds Overcast 8500 ft
Windchill 43 °F
Dew Point 33 °F
Humidity 63%
Rainfall 0.01 in
Snow Depth Not available.
UV 0 out of 12
Pollen 8.70 out of 12
Air Quality Not available.
Flu Activity Regional
METAR KIZG 270054Z AUTO 33004KT 10SM OVC085 07/01 A2963 RMK AO2 SLP037 T00720006

More Conditions Fewer Conditions

Pressure 29.64 in
Visibility 10.0 miles
Clouds Overcast 8500 ft
Windchill 43 °F
Dew Point 33 °F
Humidity 63%
Rainfall 0.01 in
Snow Depth Not available.
UV 0 out of 12
Pollen 8.70 out of 12
Air Quality Not available.
Flu Activity Regional
METAR KIZG 270054Z AUTO 33004KT 10SM OVC085 07/01 A2963 RMK AO2 SLP037 T00720006

More Conditions Fewer Conditions

The full scope of the disaster following a powerful 7.8-magnitude earthquake in Nepal may not come into view for days, but global charities are already sending emergency aid. Click to see how you can help.

10-Day Weather Forecast

Almanac

Astronomy

Apr. 26, 2015 Rise Set
Actual Time
Civil Twilight
Nautical Twilight
Astronomical Twilight
Moon
Length of Visible Light
Length of Day
Tomorrow will be .
, % of the Moon is Illuminated

Today's Extremes

State Highs State Lows

Community

WunderPhotos

Upload Photos

1,817,191 photos uploaded!

WunderBlogs® & News

Nearby

Air Quality

  Air Quality AQ Index Pollutant
Not available.

Snow Depth

Station Depth Elevation

Earthquake Activity

City Distance Mag. Time & Date
Minimum magnitude displayed is 2.5.

Coastal Water Temperatures

Place Temperature

Stations

Nearby Weather Stations

Station Location Temp. Windchill Dew Point Humidity Wind Precip. Elev Updated Type